createdAt,value
2024-03-13T00:00:37.147Z,6.30
2024-03-13T00:03:04.516Z,6.40
2024-03-13T00:05:31.280Z,6.40
2024-03-13T00:07:58.655Z,6.40
2024-03-13T00:10:28.022Z,6.40
2024-03-13T00:12:55.638Z,6.50
2024-03-13T00:15:22.537Z,6.50
2024-03-13T00:17:49.534Z,6.40
2024-03-13T00:20:17.480Z,6.50
2024-03-13T00:22:46.188Z,6.50
2024-03-13T00:25:13.971Z,6.50
2024-03-13T00:27:47.017Z,6.50
2024-03-13T00:30:14.191Z,6.50
2024-03-13T00:32:41.422Z,6.50
2024-03-13T00:35:08.747Z,6.50
2024-03-13T00:37:36.854Z,6.50
2024-03-13T00:40:04.945Z,6.50
2024-03-13T00:42:32.798Z,6.50
2024-03-13T00:44:59.676Z,6.50
2024-03-13T00:47:28.087Z,6.50
2024-03-13T00:49:54.721Z,6.60
2024-03-13T00:52:21.748Z,6.50
2024-03-13T00:54:48.858Z,6.60
2024-03-13T00:57:19.047Z,6.60
2024-03-13T00:59:46.365Z,6.60
2024-03-13T01:02:14.434Z,6.50
2024-03-13T01:04:44.214Z,6.50
2024-03-13T01:07:11.379Z,6.50
2024-03-13T01:09:39.609Z,6.60
2024-03-13T01:12:07.581Z,6.60
2024-03-13T01:14:34.657Z,6.50
2024-03-13T01:17:04.122Z,6.60
2024-03-13T01:19:35.747Z,6.50
2024-03-13T01:22:23.934Z,6.50
2024-03-13T01:24:50.797Z,6.50
2024-03-13T01:27:18.432Z,6.50
2024-03-13T01:29:49.102Z,6.50
2024-03-13T01:32:16.738Z,6.40
2024-03-13T01:34:43.546Z,6.40
2024-03-13T01:37:28.867Z,6.40
2024-03-13T01:39:55.772Z,6.40
2024-03-13T01:42:41.022Z,6.40
2024-03-13T01:45:31.928Z,6.30
2024-03-13T01:48:18.493Z,6.30
2024-03-13T01:51:04.285Z,6.30
2024-03-13T01:53:50.091Z,6.20
2024-03-13T01:56:24.590Z,6.20
2024-03-13T01:59:04.850Z,6.20
2024-03-13T02:01:50.797Z,6.20
2024-03-13T02:04:18.331Z,6.20
2024-03-13T02:06:47.822Z,6.20
2024-03-13T02:09:15.288Z,6.20
2024-03-13T02:11:42.926Z,6.20
2024-03-13T02:14:09.843Z,6.10
2024-03-13T02:16:36.573Z,6.20
2024-03-13T02:19:04.163Z,6.10
2024-03-13T02:21:34.298Z,6.10
2024-03-13T02:24:01.152Z,6.10
2024-03-13T02:26:28.038Z,6.20
2024-03-13T02:28:57.936Z,6.10
2024-03-13T02:31:24.723Z,6.20
2024-03-13T02:33:52.284Z,6.10
2024-03-13T02:36:18.929Z,6.10
2024-03-13T02:38:47.668Z,6.10
2024-03-13T02:41:14.893Z,6.10
2024-03-13T02:43:42.941Z,6.10
2024-03-13T02:46:10.088Z,6.20
2024-03-13T02:48:37.980Z,6.20
2024-03-13T02:51:05.332Z,6.20
2024-03-13T02:53:32.833Z,6.20
2024-03-13T02:55:59.788Z,6.30
2024-03-13T02:58:26.615Z,6.30
2024-03-13T03:00:56.149Z,6.30
2024-03-13T03:03:23.042Z,6.30
2024-03-13T03:05:49.931Z,6.30
2024-03-13T03:08:16.603Z,6.30
2024-03-13T03:10:43.394Z,6.40
2024-03-13T03:13:11.818Z,6.40
2024-03-13T03:15:40.161Z,6.40
2024-03-13T03:18:07.845Z,6.40
2024-03-13T03:20:34.698Z,6.40
2024-03-13T03:23:01.545Z,6.40
2024-03-13T03:25:30.291Z,6.40
2024-03-13T03:28:00.295Z,6.40
2024-03-13T03:30:27.326Z,6.40
2024-03-13T03:32:57.012Z,6.40
2024-03-13T03:35:26.477Z,6.30
2024-03-13T03:37:53.303Z,6.40
2024-03-13T03:40:20.385Z,6.30
2024-03-13T03:42:49.894Z,6.40
2024-03-13T03:45:18.018Z,6.30
2024-03-13T03:47:46.276Z,6.30
2024-03-13T03:50:16.294Z,6.30
2024-03-13T03:52:43.976Z,6.30
2024-03-13T03:55:10.828Z,6.30
2024-03-13T03:57:37.589Z,6.30
2024-03-13T04:00:09.364Z,6.30
2024-03-13T04:02:36.022Z,6.30
2024-03-13T04:05:03.586Z,6.30
2024-03-13T04:07:30.297Z,6.30
2024-03-13T04:09:56.990Z,6.30
2024-03-13T04:12:23.793Z,6.30
2024-03-13T04:14:50.484Z,6.30
2024-03-13T04:17:18.549Z,6.30
2024-03-13T04:19:45.328Z,6.30
2024-03-13T04:22:14.317Z,6.30
2024-03-13T04:24:43.548Z,6.30
2024-03-13T04:27:10.292Z,6.30
2024-03-13T04:29:44.092Z,6.30
2024-03-13T04:32:15.053Z,6.30
2024-03-13T04:34:41.885Z,6.30
2024-03-13T04:37:08.707Z,6.30
2024-03-13T04:39:36.726Z,6.30
2024-03-13T04:42:04.665Z,6.30
2024-03-13T04:44:31.328Z,6.30
2024-03-13T04:46:58.645Z,6.30
2024-03-13T04:49:25.600Z,6.30
2024-03-13T04:51:52.353Z,6.30
2024-03-13T04:54:19.108Z,6.30
2024-03-13T04:56:45.900Z,6.30
2024-03-13T04:59:13.507Z,6.30
2024-03-13T05:01:40.432Z,6.20
2024-03-13T05:04:07.364Z,6.20
2024-03-13T05:06:34.423Z,6.20
2024-03-13T05:09:01.108Z,6.20
2024-03-13T05:11:29.372Z,6.20
2024-03-13T05:13:56.151Z,6.20
2024-03-13T05:16:22.927Z,6.10
2024-03-13T05:18:50.095Z,6.10
2024-03-13T05:21:17.402Z,6.10
2024-03-13T05:23:45.363Z,6.10
2024-03-13T05:26:12.744Z,6.10
2024-03-13T05:28:39.462Z,6.10
2024-03-13T05:31:08.977Z,6.10
2024-03-13T05:33:35.997Z,6.10
2024-03-13T05:36:04.968Z,6.10
2024-03-13T05:38:31.858Z,6.10
2024-03-13T05:40:59.238Z,6.10
2024-03-13T05:43:27.070Z,6.00
2024-03-13T05:45:54.832Z,6.10
2024-03-13T05:48:21.701Z,6.20
2024-03-13T05:50:49.126Z,6.20
2024-03-13T05:53:15.976Z,6.20
2024-03-13T05:55:43.737Z,6.20
2024-03-13T05:58:10.623Z,6.30
2024-03-13T06:00:41.986Z,6.30
2024-03-13T06:03:08.725Z,6.30
2024-03-13T06:05:37.055Z,6.40
2024-03-13T06:08:03.797Z,6.40
2024-03-13T06:10:31.226Z,6.50
2024-03-13T06:12:58.336Z,6.60
2024-03-13T06:15:25.229Z,6.70
2024-03-13T06:17:53.193Z,6.80
2024-03-13T06:20:20.404Z,6.80
2024-03-13T06:22:47.304Z,7.00
2024-03-13T06:25:15.298Z,7.00
2024-03-13T06:27:44.844Z,7.10
2024-03-13T06:30:14.208Z,7.20
2024-03-13T06:32:41.748Z,7.30
2024-03-13T06:35:08.575Z,7.30
2024-03-13T06:37:37.083Z,7.30
2024-03-13T06:40:05.503Z,7.30
2024-03-13T06:42:32.887Z,7.30
2024-03-13T06:44:59.626Z,7.40
2024-03-13T06:47:26.559Z,7.40
2024-03-13T06:49:53.288Z,7.50
2024-03-13T06:52:20.219Z,7.50
2024-03-13T06:54:47.203Z,7.50
2024-03-13T06:57:14.051Z,7.60
2024-03-13T06:59:43.480Z,7.60
2024-03-13T07:02:14.747Z,7.70
2024-03-13T07:04:41.710Z,7.70
2024-03-13T07:07:08.885Z,7.80
2024-03-13T07:09:38.437Z,7.90
2024-03-13T07:12:05.882Z,8.00
2024-03-13T07:14:32.700Z,8.20
2024-03-13T07:16:59.459Z,8.30
2024-03-13T07:19:26.279Z,8.60
2024-03-13T07:21:53.700Z,8.70
2024-03-13T07:24:20.683Z,9.00
2024-03-13T07:26:47.451Z,9.10
2024-03-13T07:29:14.117Z,9.10
2024-03-13T07:31:41.145Z,9.10
2024-03-13T07:34:11.793Z,9.30
2024-03-13T07:36:41.452Z,9.30
2024-03-13T07:39:11.990Z,9.30
2024-03-13T07:41:41.273Z,9.50
2024-03-13T07:44:09.579Z,9.70
2024-03-13T07:46:38.164Z,9.70
2024-03-13T07:49:05.063Z,9.80
2024-03-13T07:51:32.250Z,9.80
2024-03-13T07:53:59.909Z,9.80
2024-03-13T07:56:26.648Z,9.90
2024-03-13T07:58:54.389Z,9.90
2024-03-13T08:01:22.071Z,10.00
2024-03-13T08:03:49.338Z,10.10
2024-03-13T09:06:42.046Z,11.20
2024-03-13T09:09:09.333Z,10.90
2024-03-13T09:11:36.255Z,10.60
2024-03-13T09:14:05.076Z,10.40
2024-03-13T09:16:33.351Z,10.30
2024-03-13T09:19:05.511Z,10.40
2024-03-13T09:21:32.386Z,10.60
2024-03-13T09:24:00.124Z,10.70
2024-03-13T09:26:28.078Z,10.80
2024-03-13T09:28:57.302Z,10.80
2024-03-13T09:31:25.861Z,10.90
2024-03-13T09:33:52.983Z,10.80
2024-03-13T09:36:20.246Z,10.60
2024-03-13T09:38:49.040Z,10.40
2024-03-13T09:41:18.938Z,10.30
2024-03-13T09:43:46.359Z,10.20
2024-03-13T09:46:14.987Z,10.20
2024-03-13T09:48:44.314Z,10.30
2024-03-13T09:51:12.441Z,10.50
2024-03-13T09:53:42.681Z,10.80
2024-03-13T09:56:16.044Z,11.00
2024-03-13T09:58:46.980Z,11.10
2024-03-13T10:01:17.828Z,11.10
2024-03-13T10:03:53.447Z,11.10
2024-03-13T10:06:24.700Z,11.20
2024-03-13T10:08:52.940Z,11.20
2024-03-13T10:11:20.784Z,11.30
2024-03-13T10:13:47.588Z,11.40
2024-03-13T10:16:14.326Z,11.50
2024-03-13T10:18:51.114Z,11.60
2024-03-13T10:21:26.581Z,11.80
2024-03-13T10:23:56.857Z,12.00
2024-03-13T10:26:25.181Z,12.00
2024-03-13T10:28:52.113Z,12.30
2024-03-13T10:31:19.119Z,12.60
2024-03-13T10:33:47.605Z,12.80
2024-03-13T10:36:15.639Z,12.90
2024-03-13T10:38:43.023Z,13.00
2024-03-13T10:41:13.093Z,13.00
2024-03-13T10:43:42.306Z,13.00
2024-03-13T10:46:11.896Z,13.00
2024-03-13T10:48:40.663Z,12.80
2024-03-13T10:51:13.298Z,12.60
2024-03-13T10:53:41.073Z,12.60
2024-03-13T10:56:17.473Z,12.70
2024-03-13T10:58:44.468Z,12.80
2024-03-13T11:01:17.584Z,12.90
2024-03-13T11:03:47.936Z,13.00
2024-03-13T11:06:16.554Z,13.20
2024-03-13T11:08:43.666Z,13.30
2024-03-13T11:11:20.923Z,13.50
2024-03-13T11:13:55.348Z,13.40
2024-03-13T11:16:23.207Z,13.30
2024-03-13T11:18:51.688Z,13.30
2024-03-13T11:21:51.593Z,13.30
2024-03-13T11:24:26.963Z,13.20
2024-03-13T11:26:54.195Z,13.00
2024-03-13T11:29:28.571Z,12.80
2024-03-13T11:31:58.246Z,12.60
2024-03-13T11:34:25.559Z,12.60
2024-03-13T11:36:54.034Z,12.60
2024-03-13T11:39:26.100Z,12.70
2024-03-13T11:41:53.215Z,12.60
2024-03-13T11:44:20.396Z,12.70
2024-03-13T11:46:51.055Z,12.70
2024-03-13T11:49:19.633Z,12.60
2024-03-13T11:52:03.293Z,12.40
2024-03-13T11:54:36.361Z,12.30
2024-03-13T11:57:13.674Z,12.00
2024-03-13T11:59:45.094Z,12.10
2024-03-13T12:02:35.333Z,12.20
2024-03-13T12:05:06.581Z,12.40
2024-03-13T12:07:45.667Z,12.90
2024-03-13T12:10:12.442Z,13.20
2024-03-13T12:12:41.148Z,13.30
2024-03-13T12:15:09.362Z,13.50
2024-03-13T12:17:36.301Z,13.70
2024-03-13T12:20:04.881Z,13.80
2024-03-13T12:22:31.818Z,13.90
2024-03-13T12:24:59.201Z,14.20
2024-03-13T12:27:26.366Z,14.30
2024-03-13T12:29:55.707Z,14.40
2024-03-13T12:32:22.690Z,14.50
2024-03-13T12:34:49.486Z,14.60
2024-03-13T12:37:18.030Z,14.40
2024-03-13T12:39:47.421Z,14.60
2024-03-13T12:42:14.706Z,14.60
2024-03-13T12:44:41.691Z,14.70
2024-03-13T12:47:13.673Z,14.80
2024-03-13T12:49:42.586Z,14.80
2024-03-13T12:52:12.483Z,14.80
2024-03-13T12:54:39.076Z,14.80
2024-03-13T12:57:12.286Z,14.80
2024-03-13T12:59:46.312Z,14.90
2024-03-13T13:02:14.008Z,14.90
2024-03-13T13:04:45.729Z,14.90
2024-03-13T13:07:13.648Z,14.90
2024-03-13T13:09:40.426Z,15.10
2024-03-13T13:12:14.020Z,15.10
2024-03-13T13:14:44.561Z,15.00
2024-03-13T13:17:13.652Z,14.90
2024-03-13T13:19:40.329Z,14.90
2024-03-13T13:22:07.605Z,14.80
2024-03-13T13:24:34.801Z,14.50
2024-03-13T13:27:02.388Z,14.40
2024-03-13T13:29:30.027Z,14.40
2024-03-13T13:31:58.297Z,14.30
2024-03-13T13:34:25.364Z,14.00
2024-03-13T13:36:52.635Z,13.80
2024-03-13T13:39:21.178Z,13.80
2024-03-13T13:41:48.905Z,13.80
2024-03-13T13:44:15.839Z,13.90
2024-03-13T13:46:42.583Z,14.00
2024-03-13T13:49:12.156Z,14.10
2024-03-13T13:51:39.067Z,14.20
2024-03-13T13:54:05.948Z,14.20
2024-03-13T13:56:32.627Z,14.20
2024-03-13T13:59:00.521Z,14.00
2024-03-13T14:01:27.266Z,13.90
2024-03-13T14:03:54.190Z,13.80
2024-03-13T14:06:23.628Z,13.60
2024-03-13T14:08:50.711Z,13.50
2024-03-13T14:11:17.441Z,13.60
2024-03-13T14:13:45.368Z,13.80
2024-03-13T14:16:12.231Z,13.90
2024-03-13T14:18:39.244Z,14.00
2024-03-13T14:21:06.031Z,14.10
2024-03-13T14:23:33.473Z,14.10
2024-03-13T14:26:00.508Z,14.00
2024-03-13T14:28:27.427Z,13.80
2024-03-13T14:30:56.707Z,13.70
2024-03-13T14:33:24.284Z,13.70
2024-03-13T14:35:51.130Z,13.60
2024-03-13T14:38:17.948Z,13.50
2024-03-13T14:40:45.073Z,13.30
2024-03-13T14:43:12.631Z,13.20
2024-03-13T14:45:42.622Z,13.30
2024-03-13T14:48:09.714Z,13.20
2024-03-13T14:50:37.254Z,13.20
2024-03-13T14:53:13.953Z,13.30
2024-03-13T14:55:40.750Z,13.30
2024-03-13T14:58:07.670Z,13.30
2024-03-13T15:00:34.637Z,13.40
2024-03-13T15:03:02.447Z,13.50
2024-03-13T15:05:32.049Z,13.50
2024-03-13T15:08:01.516Z,13.40
2024-03-13T15:10:28.180Z,13.40
2024-03-13T15:12:55.322Z,13.30
2024-03-13T15:15:22.120Z,13.40
2024-03-13T15:17:52.578Z,13.50
2024-03-13T15:20:19.690Z,13.50
2024-03-13T15:22:46.489Z,13.40
2024-03-13T15:25:15.948Z,13.20
2024-03-13T15:27:42.752Z,13.10
2024-03-13T15:30:14.657Z,13.10
2024-03-13T15:32:43.475Z,13.20
2024-03-13T15:35:10.532Z,13.20
2024-03-13T15:37:37.348Z,13.30
2024-03-13T15:40:12.734Z,13.30
2024-03-13T15:42:41.767Z,13.40
2024-03-13T15:45:11.387Z,13.50
2024-03-13T15:47:38.810Z,13.50
2024-03-13T15:50:10.698Z,13.50
2024-03-13T15:52:41.365Z,13.30
2024-03-13T15:55:08.565Z,13.20
2024-03-13T15:57:36.825Z,13.00
2024-03-13T16:00:10.508Z,13.00
2024-03-13T16:02:38.056Z,12.90
2024-03-13T16:05:07.278Z,12.80
2024-03-13T16:07:36.862Z,12.80
2024-03-13T16:10:05.227Z,12.80
2024-03-13T16:12:33.507Z,12.80
2024-03-13T16:15:00.696Z,12.70
2024-03-13T16:17:28.934Z,12.70
2024-03-13T16:19:56.230Z,12.60
2024-03-13T16:22:23.400Z,12.50
2024-03-13T16:24:50.513Z,12.40
2024-03-13T16:27:17.261Z,12.30
2024-03-13T16:29:44.457Z,12.20
2024-03-13T16:32:12.895Z,12.10
2024-03-13T16:34:44.707Z,12.00
2024-03-13T16:37:12.827Z,11.90
2024-03-13T16:39:39.944Z,11.70
2024-03-13T16:42:06.712Z,11.60
2024-03-13T16:44:33.342Z,11.50
2024-03-13T16:47:00.122Z,11.50
2024-03-13T16:49:26.825Z,11.40
2024-03-13T16:51:54.752Z,11.40
2024-03-13T16:54:23.968Z,11.30
2024-03-13T16:56:52.934Z,11.20
2024-03-13T16:59:19.680Z,11.10
2024-03-13T17:01:47.318Z,11.10
2024-03-13T17:04:14.636Z,11.00
2024-03-13T17:06:43.627Z,10.90
2024-03-13T17:09:10.865Z,10.90
2024-03-13T17:11:37.899Z,10.80
2024-03-13T17:14:05.252Z,10.80
2024-03-13T17:16:31.966Z,10.80
2024-03-13T17:18:59.948Z,10.70
2024-03-13T17:21:26.852Z,10.60
2024-03-13T17:23:53.609Z,10.60
2024-03-13T17:26:21.228Z,10.50
2024-03-13T17:28:48.241Z,10.50
2024-03-13T17:31:17.361Z,10.40
2024-03-13T17:33:44.397Z,10.40
2024-03-13T17:36:16.784Z,10.30
2024-03-13T17:38:43.877Z,10.30
2024-03-13T17:41:11.151Z,10.20
2024-03-13T17:43:37.930Z,10.20
2024-03-13T17:46:05.806Z,10.10
2024-03-13T17:48:32.657Z,10.10
2024-03-13T17:50:59.435Z,10.10
2024-03-13T17:53:26.079Z,10.00
2024-03-13T17:55:52.897Z,10.10
2024-03-13T17:58:19.970Z,10.00
2024-03-13T18:00:47.004Z,10.00
2024-03-13T18:03:14.085Z,10.00
2024-03-13T18:05:40.976Z,9.90
2024-03-13T18:08:08.596Z,9.90
2024-03-13T18:10:38.443Z,9.90
2024-03-13T18:13:05.932Z,9.90
2024-03-13T18:15:32.571Z,9.80
2024-03-13T18:17:59.293Z,9.80
2024-03-13T18:20:27.313Z,9.80
2024-03-13T18:22:55.206Z,9.80
2024-03-13T18:25:24.219Z,9.80
2024-03-13T18:27:50.947Z,9.80
2024-03-13T18:30:20.083Z,9.70
2024-03-13T18:32:48.162Z,9.70
2024-03-13T18:35:16.208Z,9.70
2024-03-13T18:37:43.647Z,9.70
2024-03-13T18:40:20.654Z,9.70
2024-03-13T18:42:47.313Z,9.60
2024-03-13T18:45:14.523Z,9.70
2024-03-13T18:47:43.683Z,9.60
2024-03-13T18:50:12.426Z,9.60
2024-03-13T18:52:48.249Z,9.60
2024-03-13T18:55:16.811Z,9.60
2024-03-13T18:57:43.988Z,9.60
2024-03-13T19:00:14.315Z,9.50
2024-03-13T19:02:41.165Z,9.60
2024-03-13T19:05:14.814Z,9.60
2024-03-13T19:07:49.676Z,9.50
2024-03-13T19:10:16.427Z,9.50
2024-03-13T19:12:43.144Z,9.50
2024-03-13T19:15:10.973Z,9.50
2024-03-13T19:17:37.825Z,9.50
2024-03-13T19:20:04.742Z,9.50
2024-03-13T19:22:32.020Z,9.50
2024-03-13T19:24:58.665Z,9.40
2024-03-13T19:27:25.380Z,9.40
2024-03-13T19:29:52.094Z,9.40
2024-03-13T19:32:18.739Z,9.30
2024-03-13T19:34:47.941Z,9.30
2024-03-13T19:37:15.543Z,9.30
2024-03-13T19:39:42.172Z,9.30
2024-03-13T19:42:08.831Z,9.30
2024-03-13T19:44:35.511Z,9.30
2024-03-13T19:47:02.588Z,9.30
2024-03-13T19:49:29.330Z,9.20
2024-03-13T19:51:55.978Z,9.20
2024-03-13T19:54:23.247Z,9.20
2024-03-13T19:56:52.143Z,9.30
2024-03-13T19:59:18.823Z,9.20
2024-03-13T20:01:45.560Z,9.20
2024-03-13T20:04:13.557Z,9.20
2024-03-13T20:06:44.343Z,9.20
2024-03-13T20:09:15.140Z,9.20
2024-03-13T20:11:42.965Z,9.20
2024-03-13T20:14:14.763Z,9.20
2024-03-13T20:16:44.042Z,9.20
2024-03-13T20:19:11.374Z,9.20
2024-03-13T20:21:38.601Z,9.20
2024-03-13T20:24:05.530Z,9.20
2024-03-13T20:26:32.513Z,9.30
2024-03-13T20:28:59.168Z,9.30
2024-03-13T20:31:25.918Z,9.30
2024-03-13T20:33:52.803Z,9.30
2024-03-13T20:36:20.204Z,9.30
2024-03-13T20:38:50.228Z,9.40
2024-03-13T20:41:16.881Z,9.40
2024-03-13T20:43:46.162Z,9.40
2024-03-13T20:46:17.167Z,9.40
2024-03-13T20:48:44.483Z,9.50
2024-03-13T20:51:11.225Z,9.40
2024-03-13T20:53:37.806Z,9.40
2024-03-13T20:56:06.684Z,9.40
2024-03-13T20:58:36.338Z,9.50
2024-03-13T21:01:03.238Z,9.50
2024-03-13T21:03:29.912Z,9.50
2024-03-13T21:05:57.080Z,9.50
2024-03-13T21:08:25.730Z,9.50
2024-03-13T21:10:52.372Z,9.50
2024-03-13T21:13:19.052Z,9.50
2024-03-13T21:15:53.906Z,9.50
2024-03-13T21:18:47.604Z,9.50
2024-03-13T21:21:14.779Z,9.50
2024-03-13T21:23:41.698Z,9.50
2024-03-13T21:26:08.930Z,9.50
2024-03-13T21:28:36.147Z,9.50
2024-03-13T21:31:03.536Z,9.40
2024-03-13T21:33:30.347Z,9.40
2024-03-13T21:35:57.345Z,9.50
2024-03-13T21:38:24.174Z,9.50
2024-03-13T21:40:50.837Z,9.50
2024-03-13T21:43:17.900Z,9.50
2024-03-13T21:45:46.976Z,9.50
2024-03-13T21:48:13.691Z,9.50
2024-03-13T21:50:43.809Z,9.50
2024-03-13T21:53:14.789Z,9.50
2024-03-13T21:55:41.428Z,9.50
2024-03-13T21:58:09.086Z,9.50
2024-03-13T22:00:35.768Z,9.60
2024-03-13T22:03:02.998Z,9.50
2024-03-13T22:05:29.784Z,9.60
2024-03-13T22:07:56.513Z,9.60
2024-03-13T22:10:25.288Z,9.60
2024-03-13T22:12:52.437Z,9.60
2024-03-13T22:15:19.352Z,9.50
2024-03-13T22:17:46.086Z,9.50
2024-03-13T22:20:12.791Z,9.50
2024-03-13T22:22:39.455Z,9.40
2024-03-13T22:25:08.739Z,9.40
2024-03-13T22:27:35.914Z,9.40
2024-03-13T22:30:04.047Z,9.50
2024-03-13T22:32:33.441Z,9.50
2024-03-13T22:35:00.242Z,9.50
2024-03-13T22:37:26.858Z,9.50
2024-03-13T22:39:53.560Z,9.50
2024-03-13T22:42:20.698Z,9.50
2024-03-13T22:44:48.631Z,9.50
2024-03-13T22:47:16.155Z,9.50
2024-03-13T22:49:44.363Z,9.50
2024-03-13T22:52:11.153Z,9.50
2024-03-13T22:54:38.251Z,9.50
2024-03-13T22:57:04.913Z,9.50
2024-03-13T22:59:31.799Z,9.50
2024-03-13T23:01:58.434Z,9.60
2024-03-13T23:04:25.823Z,9.50
2024-03-13T23:06:52.781Z,9.50
2024-03-13T23:09:20.080Z,9.50
2024-03-13T23:11:49.709Z,9.50
2024-03-13T23:14:19.472Z,9.50
2024-03-13T23:16:47.572Z,9.50
2024-03-13T23:19:15.639Z,9.50
2024-03-13T23:21:42.555Z,9.50
2024-03-13T23:24:09.537Z,9.50
2024-03-13T23:26:37.295Z,9.40
2024-03-13T23:29:03.920Z,9.40
2024-03-13T23:31:30.876Z,9.40
2024-03-13T23:33:57.682Z,9.40
2024-03-13T23:36:24.380Z,9.40
2024-03-13T23:38:51.159Z,9.50
2024-03-13T23:41:17.892Z,9.50
2024-03-13T23:43:45.141Z,9.50
2024-03-13T23:46:16.082Z,9.40
2024-03-13T23:48:43.006Z,9.50
2024-03-13T23:51:12.149Z,9.50
2024-03-13T23:53:43.581Z,9.40
2024-03-13T23:56:12.264Z,9.50
2024-03-13T23:58:39.081Z,9.50
